sensor_id;sensor_type;location;lat;lon;timestamp;P1;durP1;ratioP1;P2;durP2;ratioP2
33954;SDS011;20233;50.804;7.126;2023-05-29T00:00:14;5.80;;;2.25;;
33954;SDS011;20233;50.804;7.126;2023-05-29T00:02:45;10.20;;;2.88;;
33954;SDS011;20233;50.804;7.126;2023-05-29T00:05:11;8.48;;;3.13;;
33954;SDS011;20233;50.804;7.126;2023-05-29T00:07:38;6.25;;;2.58;;
33954;SDS011;20233;50.804;7.126;2023-05-29T00:10:04;7.35;;;2.88;;
33954;SDS011;20233;50.804;7.126;2023-05-29T00:12:31;8.10;;;2.63;;
33954;SDS011;20233;50.804;7.126;2023-05-29T00:14:57;8.35;;;3.20;;
33954;SDS011;20233;50.804;7.126;2023-05-29T00:17:22;7.85;;;3.03;;
33954;SDS011;20233;50.804;7.126;2023-05-29T00:19:50;7.63;;;3.08;;
33954;SDS011;20233;50.804;7.126;2023-05-29T00:22:16;7.20;;;3.50;;
33954;SDS011;20233;50.804;7.126;2023-05-29T00:24:41;7.65;;;2.65;;
33954;SDS011;20233;50.804;7.126;2023-05-29T00:27:07;8.85;;;3.35;;
33954;SDS011;20233;50.804;7.126;2023-05-29T00:29:33;9.10;;;3.85;;
33954;SDS011;20233;50.804;7.126;2023-05-29T00:32:00;7.70;;;3.70;;
33954;SDS011;20233;50.804;7.126;2023-05-29T00:34:26;8.43;;;3.08;;
33954;SDS011;20233;50.804;7.126;2023-05-29T00:36:53;9.27;;;3.30;;
33954;SDS011;20233;50.804;7.126;2023-05-29T00:39:20;9.60;;;3.10;;
33954;SDS011;20233;50.804;7.126;2023-05-29T00:41:46;11.95;;;4.07;;
33954;SDS011;20233;50.804;7.126;2023-05-29T00:44:17;7.70;;;3.38;;
33954;SDS011;20233;50.804;7.126;2023-05-29T00:46:43;11.23;;;3.28;;
33954;SDS011;20233;50.804;7.126;2023-05-29T00:49:13;6.53;;;2.87;;
33954;SDS011;20233;50.804;7.126;2023-05-29T00:51:40;10.00;;;4.10;;
33954;SDS011;20233;50.804;7.126;2023-05-29T00:54:07;9.65;;;3.35;;
33954;SDS011;20233;50.804;7.126;2023-05-29T00:56:35;11.90;;;3.58;;
33954;SDS011;20233;50.804;7.126;2023-05-29T00:59:01;10.52;;;3.83;;
33954;SDS011;20233;50.804;7.126;2023-05-29T01:01:26;9.52;;;3.85;;
33954;SDS011;20233;50.804;7.126;2023-05-29T01:03:55;9.02;;;3.55;;
33954;SDS011;20233;50.804;7.126;2023-05-29T01:06:22;10.25;;;3.47;;
33954;SDS011;20233;50.804;7.126;2023-05-29T01:08:48;7.22;;;3.28;;
33954;SDS011;20233;50.804;7.126;2023-05-29T01:11:31;7.50;;;2.92;;
33954;SDS011;20233;50.804;7.126;2023-05-29T01:14:06;11.02;;;3.30;;
33954;SDS011;20233;50.804;7.126;2023-05-29T01:16:40;9.57;;;3.70;;
33954;SDS011;20233;50.804;7.126;2023-05-29T01:22:07;10.90;;;3.22;;
33954;SDS011;20233;50.804;7.126;2023-05-29T01:24:49;9.27;;;3.28;;
33954;SDS011;20233;50.804;7.126;2023-05-29T01:27:19;12.07;;;3.90;;
33954;SDS011;20233;50.804;7.126;2023-05-29T01:29:50;7.88;;;3.70;;
33954;SDS011;20233;50.804;7.126;2023-05-29T01:32:18;12.05;;;3.80;;
33954;SDS011;20233;50.804;7.126;2023-05-29T01:34:45;6.97;;;3.03;;
33954;SDS011;20233;50.804;7.126;2023-05-29T01:37:10;7.15;;;3.67;;
33954;SDS011;20233;50.804;7.126;2023-05-29T01:39:36;11.82;;;3.88;;
33954;SDS011;20233;50.804;7.126;2023-05-29T01:42:02;7.00;;;3.17;;
33954;SDS011;20233;50.804;7.126;2023-05-29T01:44:29;7.30;;;3.20;;
33954;SDS011;20233;50.804;7.126;2023-05-29T01:46:56;11.18;;;4.05;;
33954;SDS011;20233;50.804;7.126;2023-05-29T01:49:24;9.90;;;3.35;;
33954;SDS011;20233;50.804;7.126;2023-05-29T01:51:50;7.07;;;3.70;;
33954;SDS011;20233;50.804;7.126;2023-05-29T01:54:16;9.30;;;3.03;;
33954;SDS011;20233;50.804;7.126;2023-05-29T01:56:42;6.78;;;3.17;;
33954;SDS011;20233;50.804;7.126;2023-05-29T01:59:09;7.70;;;3.35;;
33954;SDS011;20233;50.804;7.126;2023-05-29T02:01:38;11.27;;;3.63;;
33954;SDS011;20233;50.804;7.126;2023-05-29T02:04:04;7.60;;;3.05;;
33954;SDS011;20233;50.804;7.126;2023-05-29T02:06:30;9.27;;;3.50;;
33954;SDS011;20233;50.804;7.126;2023-05-29T02:08:58;5.40;;;2.95;;
33954;SDS011;20233;50.804;7.126;2023-05-29T02:11:26;6.57;;;3.22;;
33954;SDS011;20233;50.804;7.126;2023-05-29T02:13:52;8.80;;;3.40;;
33954;SDS011;20233;50.804;7.126;2023-05-29T02:16:18;9.55;;;3.13;;
33954;SDS011;20233;50.804;7.126;2023-05-29T02:18:45;6.00;;;3.08;;
33954;SDS011;20233;50.804;7.126;2023-05-29T02:21:11;7.28;;;2.95;;
33954;SDS011;20233;50.804;7.126;2023-05-29T02:23:37;6.88;;;3.88;;
33954;SDS011;20233;50.804;7.126;2023-05-29T02:26:02;10.93;;;3.60;;
33954;SDS011;20233;50.804;7.126;2023-05-29T02:28:28;9.05;;;3.40;;
33954;SDS011;20233;50.804;7.126;2023-05-29T02:30:54;10.60;;;3.50;;
33954;SDS011;20233;50.804;7.126;2023-05-29T02:33:19;6.10;;;2.83;;
33954;SDS011;20233;50.804;7.126;2023-05-29T02:35:45;10.70;;;3.30;;
33954;SDS011;20233;50.804;7.126;2023-05-29T02:38:11;9.05;;;3.10;;
33954;SDS011;20233;50.804;7.126;2023-05-29T02:40:36;8.90;;;3.22;;
33954;SDS011;20233;50.804;7.126;2023-05-29T02:43:04;7.65;;;3.25;;
33954;SDS011;20233;50.804;7.126;2023-05-29T02:45:30;7.75;;;3.35;;
33954;SDS011;20233;50.804;7.126;2023-05-29T02:47:56;8.45;;;3.40;;
33954;SDS011;20233;50.804;7.126;2023-05-29T02:50:21;6.72;;;3.00;;
33954;SDS011;20233;50.804;7.126;2023-05-29T02:52:47;9.88;;;3.25;;
33954;SDS011;20233;50.804;7.126;2023-05-29T02:55:12;7.88;;;3.10;;
33954;SDS011;20233;50.804;7.126;2023-05-29T02:57:38;8.27;;;3.17;;
33954;SDS011;20233;50.804;7.126;2023-05-29T03:00:05;8.50;;;3.25;;
33954;SDS011;20233;50.804;7.126;2023-05-29T03:02:33;9.30;;;3.25;;
33954;SDS011;20233;50.804;7.126;2023-05-29T03:04:59;8.30;;;3.28;;
33954;SDS011;20233;50.804;7.126;2023-05-29T03:07:25;6.47;;;2.70;;
33954;SDS011;20233;50.804;7.126;2023-05-29T03:09:51;8.57;;;3.40;;
33954;SDS011;20233;50.804;7.126;2023-05-29T03:12:17;7.63;;;3.38;;
33954;SDS011;20233;50.804;7.126;2023-05-29T03:14:43;5.97;;;2.45;;
33954;SDS011;20233;50.804;7.126;2023-05-29T03:17:09;6.57;;;3.40;;
33954;SDS011;20233;50.804;7.126;2023-05-29T03:19:34;8.43;;;3.10;;
33954;SDS011;20233;50.804;7.126;2023-05-29T03:22:00;6.90;;;2.65;;
33954;SDS011;20233;50.804;7.126;2023-05-29T03:24:26;10.32;;;4.85;;
33954;SDS011;20233;50.804;7.126;2023-05-29T03:26:52;6.00;;;2.80;;
33954;SDS011;20233;50.804;7.126;2023-05-29T03:29:18;6.60;;;2.88;;
33954;SDS011;20233;50.804;7.126;2023-05-29T03:31:43;9.52;;;3.08;;
33954;SDS011;20233;50.804;7.126;2023-05-29T03:34:09;5.22;;;2.63;;
33954;SDS011;20233;50.804;7.126;2023-05-29T03:36:35;8.27;;;2.75;;
33954;SDS011;20233;50.804;7.126;2023-05-29T03:39:03;8.27;;;3.40;;
33954;SDS011;20233;50.804;7.126;2023-05-29T03:41:29;9.15;;;3.22;;
33954;SDS011;20233;50.804;7.126;2023-05-29T03:43:54;8.20;;;3.15;;
33954;SDS011;20233;50.804;7.126;2023-05-29T03:46:20;9.02;;;2.85;;
33954;SDS011;20233;50.804;7.126;2023-05-29T03:48:45;11.43;;;3.28;;
33954;SDS011;20233;50.804;7.126;2023-05-29T03:51:11;7.53;;;3.10;;
33954;SDS011;20233;50.804;7.126;2023-05-29T03:53:37;8.52;;;2.70;;
33954;SDS011;20233;50.804;7.126;2023-05-29T03:56:02;5.10;;;2.88;;
33954;SDS011;20233;50.804;7.126;2023-05-29T03:58:28;9.13;;;3.00;;
33954;SDS011;20233;50.804;7.126;2023-05-29T04:00:53;7.80;;;3.22;;
33954;SDS011;20233;50.804;7.126;2023-05-29T04:03:19;7.07;;;3.28;;
33954;SDS011;20233;50.804;7.126;2023-05-29T04:05:45;7.68;;;3.28;;
33954;SDS011;20233;50.804;7.126;2023-05-29T04:08:11;9.95;;;3.58;;
33954;SDS011;20233;50.804;7.126;2023-05-29T04:10:38;7.88;;;3.83;;
33954;SDS011;20233;50.804;7.126;2023-05-29T04:13:04;9.48;;;3.38;;
33954;SDS011;20233;50.804;7.126;2023-05-29T04:15:30;7.80;;;3.53;;
33954;SDS011;20233;50.804;7.126;2023-05-29T04:17:59;11.05;;;3.97;;
33954;SDS011;20233;50.804;7.126;2023-05-29T04:20:25;12.23;;;3.88;;
33954;SDS011;20233;50.804;7.126;2023-05-29T04:22:50;9.88;;;4.10;;
33954;SDS011;20233;50.804;7.126;2023-05-29T04:25:16;10.10;;;3.97;;
33954;SDS011;20233;50.804;7.126;2023-05-29T04:27:43;6.30;;;2.90;;
33954;SDS011;20233;50.804;7.126;2023-05-29T04:30:14;9.45;;;3.17;;
33954;SDS011;20233;50.804;7.126;2023-05-29T04:32:41;6.28;;;3.08;;
33954;SDS011;20233;50.804;7.126;2023-05-29T04:35:07;7.60;;;3.50;;
33954;SDS011;20233;50.804;7.126;2023-05-29T04:37:34;8.73;;;4.03;;
33954;SDS011;20233;50.804;7.126;2023-05-29T04:40:06;9.85;;;4.15;;
33954;SDS011;20233;50.804;7.126;2023-05-29T04:42:34;11.23;;;4.45;;
33954;SDS011;20233;50.804;7.126;2023-05-29T04:45:00;10.75;;;3.72;;
33954;SDS011;20233;50.804;7.126;2023-05-29T04:47:26;11.52;;;3.38;;
33954;SDS011;20233;50.804;7.126;2023-05-29T04:49:52;6.65;;;3.10;;
33954;SDS011;20233;50.804;7.126;2023-05-29T04:52:18;8.48;;;3.58;;
33954;SDS011;20233;50.804;7.126;2023-05-29T04:54:46;8.98;;;3.42;;
33954;SDS011;20233;50.804;7.126;2023-05-29T04:57:11;10.95;;;3.35;;
33954;SDS011;20233;50.804;7.126;2023-05-29T04:59:37;13.75;;;3.85;;
33954;SDS011;20233;50.804;7.126;2023-05-29T05:02:02;10.48;;;4.05;;
33954;SDS011;20233;50.804;7.126;2023-05-29T05:04:29;9.52;;;3.25;;
33954;SDS011;20233;50.804;7.126;2023-05-29T05:06:55;8.75;;;3.90;;
33954;SDS011;20233;50.804;7.126;2023-05-29T05:09:20;9.60;;;3.97;;
33954;SDS011;20233;50.804;7.126;2023-05-29T05:11:46;9.70;;;3.50;;
33954;SDS011;20233;50.804;7.126;2023-05-29T05:14:11;11.38;;;3.65;;
33954;SDS011;20233;50.804;7.126;2023-05-29T05:16:37;9.02;;;3.80;;
33954;SDS011;20233;50.804;7.126;2023-05-29T05:19:02;13.75;;;5.00;;
33954;SDS011;20233;50.804;7.126;2023-05-29T05:21:28;13.70;;;4.60;;
33954;SDS011;20233;50.804;7.126;2023-05-29T05:23:56;12.48;;;3.72;;
33954;SDS011;20233;50.804;7.126;2023-05-29T05:26:22;13.57;;;4.65;;
33954;SDS011;20233;50.804;7.126;2023-05-29T05:28:47;9.75;;;3.72;;
33954;SDS011;20233;50.804;7.126;2023-05-29T05:31:13;9.20;;;4.03;;
33954;SDS011;20233;50.804;7.126;2023-05-29T05:33:39;11.60;;;4.72;;
33954;SDS011;20233;50.804;7.126;2023-05-29T05:36:04;12.20;;;5.00;;
33954;SDS011;20233;50.804;7.126;2023-05-29T05:38:31;14.80;;;4.00;;
33954;SDS011;20233;50.804;7.126;2023-05-29T05:40:57;10.07;;;3.70;;
33954;SDS011;20233;50.804;7.126;2023-05-29T05:43:23;10.63;;;4.72;;
33954;SDS011;20233;50.804;7.126;2023-05-29T05:45:49;12.68;;;3.85;;
33954;SDS011;20233;50.804;7.126;2023-05-29T05:48:15;9.98;;;4.15;;
33954;SDS011;20233;50.804;7.126;2023-05-29T05:50:40;13.57;;;4.57;;
33954;SDS011;20233;50.804;7.126;2023-05-29T05:53:06;11.48;;;4.53;;
33954;SDS011;20233;50.804;7.126;2023-05-29T05:55:31;12.45;;;4.00;;
33954;SDS011;20233;50.804;7.126;2023-05-29T05:57:57;10.32;;;3.60;;
33954;SDS011;20233;50.804;7.126;2023-05-29T06:00:23;9.55;;;3.65;;
33954;SDS011;20233;50.804;7.126;2023-05-29T06:02:49;11.27;;;4.72;;
33954;SDS011;20233;50.804;7.126;2023-05-29T06:05:14;12.57;;;3.90;;
33954;SDS011;20233;50.804;7.126;2023-05-29T06:07:40;9.75;;;4.03;;
33954;SDS011;20233;50.804;7.126;2023-05-29T06:10:06;9.98;;;3.92;;
33954;SDS011;20233;50.804;7.126;2023-05-29T06:12:32;11.93;;;4.15;;
33954;SDS011;20233;50.804;7.126;2023-05-29T06:14:59;12.82;;;4.15;;
33954;SDS011;20233;50.804;7.126;2023-05-29T06:17:25;11.98;;;3.63;;
33954;SDS011;20233;50.804;7.126;2023-05-29T06:19:50;15.55;;;3.80;;
33954;SDS011;20233;50.804;7.126;2023-05-29T06:22:16;12.60;;;4.22;;
33954;SDS011;20233;50.804;7.126;2023-05-29T06:24:42;14.73;;;5.43;;
33954;SDS011;20233;50.804;7.126;2023-05-29T06:27:07;11.85;;;4.00;;
33954;SDS011;20233;50.804;7.126;2023-05-29T06:29:33;10.50;;;4.00;;
33954;SDS011;20233;50.804;7.126;2023-05-29T06:31:59;13.40;;;3.88;;
33954;SDS011;20233;50.804;7.126;2023-05-29T06:34:25;11.48;;;4.30;;
33954;SDS011;20233;50.804;7.126;2023-05-29T06:36:51;14.88;;;4.25;;
33954;SDS011;20233;50.804;7.126;2023-05-29T06:39:16;12.38;;;3.88;;
33954;SDS011;20233;50.804;7.126;2023-05-29T06:41:43;12.68;;;4.38;;
33954;SDS011;20233;50.804;7.126;2023-05-29T06:44:08;10.70;;;4.32;;
33954;SDS011;20233;50.804;7.126;2023-05-29T06:46:34;9.38;;;4.10;;
33954;SDS011;20233;50.804;7.126;2023-05-29T06:49:00;11.68;;;4.55;;
33954;SDS011;20233;50.804;7.126;2023-05-29T06:51:26;12.18;;;4.18;;
33954;SDS011;20233;50.804;7.126;2023-05-29T06:53:52;9.60;;;4.50;;
33954;SDS011;20233;50.804;7.126;2023-05-29T06:56:18;17.92;;;5.00;;
33954;SDS011;20233;50.804;7.126;2023-05-29T06:58:43;13.07;;;4.22;;
33954;SDS011;20233;50.804;7.126;2023-05-29T07:01:10;10.02;;;3.85;;
33954;SDS011;20233;50.804;7.126;2023-05-29T07:03:36;9.80;;;3.92;;
33954;SDS011;20233;50.804;7.126;2023-05-29T07:06:02;15.27;;;4.03;;
33954;SDS011;20233;50.804;7.126;2023-05-29T07:08:28;13.77;;;3.88;;
33954;SDS011;20233;50.804;7.126;2023-05-29T07:10:54;11.63;;;3.85;;
33954;SDS011;20233;50.804;7.126;2023-05-29T07:13:20;10.07;;;4.55;;
33954;SDS011;20233;50.804;7.126;2023-05-29T07:15:46;12.90;;;4.47;;
33954;SDS011;20233;50.804;7.126;2023-05-29T07:18:13;15.38;;;4.30;;
33954;SDS011;20233;50.804;7.126;2023-05-29T07:20:38;11.35;;;4.00;;
33954;SDS011;20233;50.804;7.126;2023-05-29T07:23:04;10.27;;;4.28;;
33954;SDS011;20233;50.804;7.126;2023-05-29T07:25:30;11.07;;;4.43;;
33954;SDS011;20233;50.804;7.126;2023-05-29T07:27:56;11.02;;;4.03;;
33954;SDS011;20233;50.804;7.126;2023-05-29T07:30:22;10.43;;;4.25;;
33954;SDS011;20233;50.804;7.126;2023-05-29T07:32:48;11.32;;;3.90;;
33954;SDS011;20233;50.804;7.126;2023-05-29T07:35:14;12.07;;;3.90;;
33954;SDS011;20233;50.804;7.126;2023-05-29T07:37:40;12.07;;;4.20;;
33954;SDS011;20233;50.804;7.126;2023-05-29T07:40:05;9.90;;;3.75;;
33954;SDS011;20233;50.804;7.126;2023-05-29T07:42:32;9.75;;;3.60;;
33954;SDS011;20233;50.804;7.126;2023-05-29T07:44:58;10.55;;;4.05;;
33954;SDS011;20233;50.804;7.126;2023-05-29T07:47:24;12.27;;;3.60;;
33954;SDS011;20233;50.804;7.126;2023-05-29T07:49:50;14.57;;;4.95;;
33954;SDS011;20233;50.804;7.126;2023-05-29T07:52:17;10.85;;;3.85;;
33954;SDS011;20233;50.804;7.126;2023-05-29T07:54:43;17.05;;;3.78;;
33954;SDS011;20233;50.804;7.126;2023-05-29T07:57:08;12.13;;;4.03;;
33954;SDS011;20233;50.804;7.126;2023-05-29T07:59:38;13.93;;;4.45;;
33954;SDS011;20233;50.804;7.126;2023-05-29T08:02:06;9.98;;;4.20;;
33954;SDS011;20233;50.804;7.126;2023-05-29T08:04:33;9.85;;;4.82;;
33954;SDS011;20233;50.804;7.126;2023-05-29T08:07:01;10.50;;;3.75;;
33954;SDS011;20233;50.804;7.126;2023-05-29T08:09:30;13.10;;;4.03;;
33954;SDS011;20233;50.804;7.126;2023-05-29T08:11:56;11.40;;;4.22;;
33954;SDS011;20233;50.804;7.126;2023-05-29T08:14:21;12.88;;;4.05;;
33954;SDS011;20233;50.804;7.126;2023-05-29T08:16:47;13.10;;;4.53;;
33954;SDS011;20233;50.804;7.126;2023-05-29T08:19:12;20.15;;;4.07;;
33954;SDS011;20233;50.804;7.126;2023-05-29T08:21:38;10.60;;;3.40;;
33954;SDS011;20233;50.804;7.126;2023-05-29T08:24:04;13.90;;;4.10;;
33954;SDS011;20233;50.804;7.126;2023-05-29T08:26:30;11.27;;;3.72;;
33954;SDS011;20233;50.804;7.126;2023-05-29T08:28:56;9.52;;;3.20;;
33954;SDS011;20233;50.804;7.126;2023-05-29T08:31:22;9.55;;;3.38;;
33954;SDS011;20233;50.804;7.126;2023-05-29T08:33:50;12.88;;;4.05;;
33954;SDS011;20233;50.804;7.126;2023-05-29T08:36:16;8.40;;;3.53;;
33954;SDS011;20233;50.804;7.126;2023-05-29T08:38:42;11.63;;;3.30;;
33954;SDS011;20233;50.804;7.126;2023-05-29T08:41:08;10.48;;;3.22;;
33954;SDS011;20233;50.804;7.126;2023-05-29T08:43:39;9.20;;;2.70;;
33954;SDS011;20233;50.804;7.126;2023-05-29T08:46:07;7.70;;;2.60;;
33954;SDS011;20233;50.804;7.126;2023-05-29T08:48:32;10.63;;;2.88;;
33954;SDS011;20233;50.804;7.126;2023-05-29T08:51:05;15.18;;;3.13;;
33954;SDS011;20233;50.804;7.126;2023-05-29T08:53:32;11.27;;;3.25;;
33954;SDS011;20233;50.804;7.126;2023-05-29T08:55:58;8.57;;;2.92;;
33954;SDS011;20233;50.804;7.126;2023-05-29T08:58:26;8.48;;;3.00;;
33954;SDS011;20233;50.804;7.126;2023-05-29T09:00:52;9.50;;;3.15;;
33954;SDS011;20233;50.804;7.126;2023-05-29T09:03:17;9.07;;;3.70;;
33954;SDS011;20233;50.804;7.126;2023-05-29T09:05:45;8.68;;;3.00;;
33954;SDS011;20233;50.804;7.126;2023-05-29T09:08:11;9.52;;;2.90;;
33954;SDS011;20233;50.804;7.126;2023-05-29T09:10:46;7.88;;;2.53;;
33954;SDS011;20233;50.804;7.126;2023-05-29T09:13:12;8.68;;;2.30;;
33954;SDS011;20233;50.804;7.126;2023-05-29T09:15:40;9.98;;;2.65;;
33954;SDS011;20233;50.804;7.126;2023-05-29T09:18:10;8.15;;;3.17;;
33954;SDS011;20233;50.804;7.126;2023-05-29T09:20:36;11.88;;;2.97;;
33954;SDS011;20233;50.804;7.126;2023-05-29T09:23:03;12.57;;;3.00;;
33954;SDS011;20233;50.804;7.126;2023-05-29T09:25:31;14.63;;;3.60;;
33954;SDS011;20233;50.804;7.126;2023-05-29T09:27:59;9.77;;;2.50;;
33954;SDS011;20233;50.804;7.126;2023-05-29T09:30:30;10.52;;;2.40;;
33954;SDS011;20233;50.804;7.126;2023-05-29T09:32:58;9.25;;;2.60;;
33954;SDS011;20233;50.804;7.126;2023-05-29T09:35:25;8.63;;;2.55;;
33954;SDS011;20233;50.804;7.126;2023-05-29T09:37:56;11.15;;;2.35;;
33954;SDS011;20233;50.804;7.126;2023-05-29T09:40:22;7.93;;;2.15;;
33954;SDS011;20233;50.804;7.126;2023-05-29T09:42:48;9.40;;;2.45;;
33954;SDS011;20233;50.804;7.126;2023-05-29T09:45:16;10.05;;;2.30;;
33954;SDS011;20233;50.804;7.126;2023-05-29T09:47:44;9.20;;;2.47;;
33954;SDS011;20233;50.804;7.126;2023-05-29T09:50:19;7.47;;;2.45;;
33954;SDS011;20233;50.804;7.126;2023-05-29T09:52:50;9.40;;;2.30;;
33954;SDS011;20233;50.804;7.126;2023-05-29T09:55:17;7.07;;;1.70;;
33954;SDS011;20233;50.804;7.126;2023-05-29T09:57:46;6.88;;;2.08;;
33954;SDS011;20233;50.804;7.126;2023-05-29T10:00:13;5.45;;;2.13;;
33954;SDS011;20233;50.804;7.126;2023-05-29T10:02:45;7.65;;;2.30;;
33954;SDS011;20233;50.804;7.126;2023-05-29T10:05:11;9.98;;;2.47;;
33954;SDS011;20233;50.804;7.126;2023-05-29T10:07:40;10.23;;;1.80;;
33954;SDS011;20233;50.804;7.126;2023-05-29T10:10:17;7.78;;;2.63;;
33954;SDS011;20233;50.804;7.126;2023-05-29T10:12:49;8.68;;;3.17;;
33954;SDS011;20233;50.804;7.126;2023-05-29T10:15:16;11.40;;;2.67;;
33954;SDS011;20233;50.804;7.126;2023-05-29T10:17:53;11.82;;;2.53;;
33954;SDS011;20233;50.804;7.126;2023-05-29T10:20:24;8.02;;;2.72;;
33954;SDS011;20233;50.804;7.126;2023-05-29T10:22:52;10.95;;;2.35;;
33954;SDS011;20233;50.804;7.126;2023-05-29T10:25:20;9.82;;;2.40;;
33954;SDS011;20233;50.804;7.126;2023-05-29T10:27:48;8.45;;;1.70;;
33954;SDS011;20233;50.804;7.126;2023-05-29T10:30:21;9.40;;;2.30;;
33954;SDS011;20233;50.804;7.126;2023-05-29T10:38:26;11.20;;;2.22;;
33954;SDS011;20233;50.804;7.126;2023-05-29T10:40:52;8.35;;;1.73;;
33954;SDS011;20233;50.804;7.126;2023-05-29T10:43:30;8.50;;;2.33;;
33954;SDS011;20233;50.804;7.126;2023-05-29T10:45:57;12.73;;;2.80;;
33954;SDS011;20233;50.804;7.126;2023-05-29T10:50:53;9.15;;;2.30;;
33954;SDS011;20233;50.804;7.126;2023-05-29T10:53:23;7.18;;;2.35;;
33954;SDS011;20233;50.804;7.126;2023-05-29T10:55:51;7.45;;;1.45;;
33954;SDS011;20233;50.804;7.126;2023-05-29T10:58:18;10.48;;;1.95;;
33954;SDS011;20233;50.804;7.126;2023-05-29T11:00:52;10.32;;;1.58;;
33954;SDS011;20233;50.804;7.126;2023-05-29T11:03:21;8.82;;;1.98;;
33954;SDS011;20233;50.804;7.126;2023-05-29T11:05:57;15.27;;;2.00;;
33954;SDS011;20233;50.804;7.126;2023-05-29T11:11:13;7.50;;;2.45;;
33954;SDS011;20233;50.804;7.126;2023-05-29T11:14:06;5.78;;;1.88;;
33954;SDS011;20233;50.804;7.126;2023-05-29T11:18:58;11.90;;;2.25;;
33954;SDS011;20233;50.804;7.126;2023-05-29T11:21:29;9.48;;;2.70;;
33954;SDS011;20233;50.804;7.126;2023-05-29T11:24:21;8.80;;;2.22;;
33954;SDS011;20233;50.804;7.126;2023-05-29T11:26:54;9.35;;;1.95;;
33954;SDS011;20233;50.804;7.126;2023-05-29T11:29:26;9.48;;;2.30;;
33954;SDS011;20233;50.804;7.126;2023-05-29T11:32:03;10.00;;;2.10;;
33954;SDS011;20233;50.804;7.126;2023-05-29T11:34:31;9.65;;;1.98;;
33954;SDS011;20233;50.804;7.126;2023-05-29T11:37:01;5.88;;;1.60;;
33954;SDS011;20233;50.804;7.126;2023-05-29T11:39:27;8.43;;;1.88;;
33954;SDS011;20233;50.804;7.126;2023-05-29T11:41:55;8.10;;;2.05;;
33954;SDS011;20233;50.804;7.126;2023-05-29T11:44:23;9.55;;;1.85;;
33954;SDS011;20233;50.804;7.126;2023-05-29T11:47:00;9.55;;;2.67;;
33954;SDS011;20233;50.804;7.126;2023-05-29T11:49:30;7.22;;;1.35;;
33954;SDS011;20233;50.804;7.126;2023-05-29T11:52:19;10.90;;;1.70;;
33954;SDS011;20233;50.804;7.126;2023-05-29T11:54:47;6.22;;;1.70;;
33954;SDS011;20233;50.804;7.126;2023-05-29T11:57:19;8.43;;;2.00;;
33954;SDS011;20233;50.804;7.126;2023-05-29T11:59:45;8.23;;;1.70;;
33954;SDS011;20233;50.804;7.126;2023-05-29T12:02:11;6.55;;;2.15;;
33954;SDS011;20233;50.804;7.126;2023-05-29T12:04:37;6.57;;;1.80;;
33954;SDS011;20233;50.804;7.126;2023-05-29T12:07:16;7.43;;;2.22;;
33954;SDS011;20233;50.804;7.126;2023-05-29T12:09:44;8.02;;;2.28;;
33954;SDS011;20233;50.804;7.126;2023-05-29T12:12:10;5.88;;;1.40;;
33954;SDS011;20233;50.804;7.126;2023-05-29T12:14:35;7.97;;;2.13;;
33954;SDS011;20233;50.804;7.126;2023-05-29T12:17:01;7.50;;;1.77;;
33954;SDS011;20233;50.804;7.126;2023-05-29T12:19:27;8.70;;;1.73;;
33954;SDS011;20233;50.804;7.126;2023-05-29T12:21:53;11.20;;;1.83;;
33954;SDS011;20233;50.804;7.126;2023-05-29T12:24:19;8.02;;;2.00;;
33954;SDS011;20233;50.804;7.126;2023-05-29T12:26:44;7.25;;;2.28;;
33954;SDS011;20233;50.804;7.126;2023-05-29T12:29:13;7.93;;;1.77;;
33954;SDS011;20233;50.804;7.126;2023-05-29T12:31:40;4.97;;;1.70;;
33954;SDS011;20233;50.804;7.126;2023-05-29T12:34:10;8.70;;;2.42;;
33954;SDS011;20233;50.804;7.126;2023-05-29T12:36:40;8.02;;;2.08;;
33954;SDS011;20233;50.804;7.126;2023-05-29T12:39:07;7.10;;;1.70;;
33954;SDS011;20233;50.804;7.126;2023-05-29T12:41:36;7.25;;;1.88;;
33954;SDS011;20233;50.804;7.126;2023-05-29T12:44:03;8.50;;;2.45;;
33954;SDS011;20233;50.804;7.126;2023-05-29T12:46:35;8.32;;;2.00;;
33954;SDS011;20233;50.804;7.126;2023-05-29T12:49:15;9.68;;;2.05;;
33954;SDS011;20233;50.804;7.126;2023-05-29T12:51:42;7.03;;;1.73;;
33954;SDS011;20233;50.804;7.126;2023-05-29T12:54:13;9.20;;;2.58;;
33954;SDS011;20233;50.804;7.126;2023-05-29T12:59:09;7.35;;;2.05;;
33954;SDS011;20233;50.804;7.126;2023-05-29T13:01:38;5.50;;;2.03;;
33954;SDS011;20233;50.804;7.126;2023-05-29T13:04:05;7.60;;;1.60;;
33954;SDS011;20233;50.804;7.126;2023-05-29T13:06:32;8.35;;;2.10;;
33954;SDS011;20233;50.804;7.126;2023-05-29T13:08:58;7.85;;;1.83;;
33954;SDS011;20233;50.804;7.126;2023-05-29T13:11:24;6.70;;;1.88;;
33954;SDS011;20233;50.804;7.126;2023-05-29T13:13:50;7.15;;;3.35;;
33954;SDS011;20233;50.804;7.126;2023-05-29T13:16:16;8.48;;;2.20;;
33954;SDS011;20233;50.804;7.126;2023-05-29T13:18:42;8.13;;;1.55;;
33954;SDS011;20233;50.804;7.126;2023-05-29T13:21:08;5.82;;;1.75;;
33954;SDS011;20233;50.804;7.126;2023-05-29T13:23:33;8.60;;;1.73;;
33954;SDS011;20233;50.804;7.126;2023-05-29T13:25:59;10.23;;;2.15;;
33954;SDS011;20233;50.804;7.126;2023-05-29T13:28:24;6.55;;;1.75;;
33954;SDS011;20233;50.804;7.126;2023-05-29T13:30:52;6.57;;;1.98;;
33954;SDS011;20233;50.804;7.126;2023-05-29T13:33:18;7.38;;;2.38;;
33954;SDS011;20233;50.804;7.126;2023-05-29T13:35:43;6.70;;;1.20;;
33954;SDS011;20233;50.804;7.126;2023-05-29T13:38:09;7.63;;;1.98;;
33954;SDS011;20233;50.804;7.126;2023-05-29T13:40:34;5.78;;;2.00;;
33954;SDS011;20233;50.804;7.126;2023-05-29T13:43:00;5.22;;;1.33;;
33954;SDS011;20233;50.804;7.126;2023-05-29T13:45:26;6.97;;;1.45;;
33954;SDS011;20233;50.804;7.126;2023-05-29T13:47:53;5.55;;;1.45;;
33954;SDS011;20233;50.804;7.126;2023-05-29T13:50:19;8.40;;;2.42;;
33954;SDS011;20233;50.804;7.126;2023-05-29T13:52:45;9.07;;;1.88;;
33954;SDS011;20233;50.804;7.126;2023-05-29T13:55:10;7.50;;;2.08;;
33954;SDS011;20233;50.804;7.126;2023-05-29T13:57:36;5.97;;;1.40;;
33954;SDS011;20233;50.804;7.126;2023-05-29T14:00:02;7.32;;;1.75;;
33954;SDS011;20233;50.804;7.126;2023-05-29T14:02:29;8.02;;;1.65;;
33954;SDS011;20233;50.804;7.126;2023-05-29T14:04:54;8.13;;;1.40;;
33954;SDS011;20233;50.804;7.126;2023-05-29T14:07:20;6.95;;;1.75;;
33954;SDS011;20233;50.804;7.126;2023-05-29T14:09:45;8.32;;;1.73;;
33954;SDS011;20233;50.804;7.126;2023-05-29T14:12:11;8.30;;;1.73;;
33954;SDS011;20233;50.804;7.126;2023-05-29T14:14:37;5.45;;;1.23;;
33954;SDS011;20233;50.804;7.126;2023-05-29T14:17:03;7.40;;;1.27;;
33954;SDS011;20233;50.804;7.126;2023-05-29T14:19:29;8.40;;;1.48;;
33954;SDS011;20233;50.804;7.126;2023-05-29T14:21:55;8.45;;;2.10;;
33954;SDS011;20233;50.804;7.126;2023-05-29T14:24:21;9.40;;;2.00;;
33954;SDS011;20233;50.804;7.126;2023-05-29T14:26:46;8.05;;;1.85;;
33954;SDS011;20233;50.804;7.126;2023-05-29T14:29:12;7.47;;;1.75;;
33954;SDS011;20233;50.804;7.126;2023-05-29T14:31:41;8.20;;;1.42;;
33954;SDS011;20233;50.804;7.126;2023-05-29T14:34:07;6.82;;;1.50;;
33954;SDS011;20233;50.804;7.126;2023-05-29T14:36:36;7.75;;;1.67;;
33954;SDS011;20233;50.804;7.126;2023-05-29T14:39:02;7.57;;;1.85;;
33954;SDS011;20233;50.804;7.126;2023-05-29T14:41:28;6.72;;;2.20;;
33954;SDS011;20233;50.804;7.126;2023-05-29T14:43:54;5.80;;;1.42;;
33954;SDS011;20233;50.804;7.126;2023-05-29T14:46:23;6.47;;;1.60;;
33954;SDS011;20233;50.804;7.126;2023-05-29T14:48:50;6.32;;;1.88;;
33954;SDS011;20233;50.804;7.126;2023-05-29T14:51:15;9.10;;;1.85;;
33954;SDS011;20233;50.804;7.126;2023-05-29T14:53:42;5.20;;;1.08;;
33954;SDS011;20233;50.804;7.126;2023-05-29T14:56:08;6.05;;;1.77;;
33954;SDS011;20233;50.804;7.126;2023-05-29T14:58:36;6.53;;;1.73;;
33954;SDS011;20233;50.804;7.126;2023-05-29T15:01:02;8.57;;;1.88;;